sensor_id;sensor_type;location;lat;lon;timestamp;P1;durP1;ratioP1;P2;durP2;ratioP2
53775;SDS011;44276;49.534;6.378;2022-08-18T00:01:56;8.02;;;4.93;;
53775;SDS011;44276;49.534;6.378;2022-08-18T00:04:32;9.43;;;4.43;;
53775;SDS011;44276;49.534;6.378;2022-08-18T00:07:17;6.50;;;4.90;;
53775;SDS011;44276;49.534;6.378;2022-08-18T00:09:49;6.38;;;4.82;;
53775;SDS011;44276;49.534;6.378;2022-08-18T00:12:19;5.95;;;4.72;;
53775;SDS011;44276;49.534;6.378;2022-08-18T00:14:52;13.00;;;5.35;;
53775;SDS011;44276;49.534;6.378;2022-08-18T00:17:23;6.85;;;4.30;;
53775;SDS011;44276;49.534;6.378;2022-08-18T00:19:51;7.28;;;4.30;;
53775;SDS011;44276;49.534;6.378;2022-08-18T00:22:21;5.68;;;4.20;;
53775;SDS011;44276;49.534;6.378;2022-08-18T00:24:50;13.20;;;4.72;;
53775;SDS011;44276;49.534;6.378;2022-08-18T00:27:25;5.78;;;4.75;;
53775;SDS011;44276;49.534;6.378;2022-08-18T00:29:58;5.65;;;4.60;;
53775;SDS011;44276;49.534;6.378;2022-08-18T00:32:30;6.70;;;4.60;;
53775;SDS011;44276;49.534;6.378;2022-08-18T00:35:04;5.88;;;4.47;;
53775;SDS011;44276;49.534;6.378;2022-08-18T00:37:35;7.18;;;5.20;;
53775;SDS011;44276;49.534;6.378;2022-08-18T00:40:04;7.82;;;5.95;;
53775;SDS011;44276;49.534;6.378;2022-08-18T00:42:38;7.40;;;4.68;;
53775;SDS011;44276;49.534;6.378;2022-08-18T00:45:12;5.38;;;4.55;;
53775;SDS011;44276;49.534;6.378;2022-08-18T00:47:44;7.63;;;5.20;;
53775;SDS011;44276;49.534;6.378;2022-08-18T00:50:14;6.13;;;4.75;;
53775;SDS011;44276;49.534;6.378;2022-08-18T00:52:50;6.60;;;5.75;;
53775;SDS011;44276;49.534;6.378;2022-08-18T00:55:23;8.65;;;4.97;;
53775;SDS011;44276;49.534;6.378;2022-08-18T00:57:56;9.25;;;5.30;;
53775;SDS011;44276;49.534;6.378;2022-08-18T01:00:35;6.45;;;5.22;;
53775;SDS011;44276;49.534;6.378;2022-08-18T01:03:05;6.38;;;5.10;;
53775;SDS011;44276;49.534;6.378;2022-08-18T01:05:51;5.88;;;4.80;;
53775;SDS011;44276;49.534;6.378;2022-08-18T01:08:31;7.85;;;5.22;;
53775;SDS011;44276;49.534;6.378;2022-08-18T01:11:00;5.72;;;4.78;;
53775;SDS011;44276;49.534;6.378;2022-08-18T01:13:29;7.65;;;6.45;;
53775;SDS011;44276;49.534;6.378;2022-08-18T01:16:03;8.95;;;5.22;;
53775;SDS011;44276;49.534;6.378;2022-08-18T01:18:46;5.13;;;4.57;;
53775;SDS011;44276;49.534;6.378;2022-08-18T01:21:32;5.57;;;4.97;;
53775;SDS011;44276;49.534;6.378;2022-08-18T01:24:18;7.38;;;5.00;;
53775;SDS011;44276;49.534;6.378;2022-08-18T01:27:11;7.30;;;5.30;;
53775;SDS011;44276;49.534;6.378;2022-08-18T01:29:43;8.88;;;5.30;;
53775;SDS011;44276;49.534;6.378;2022-08-18T01:32:13;6.32;;;5.22;;
53775;SDS011;44276;49.534;6.378;2022-08-18T01:34:45;7.03;;;4.75;;
53775;SDS011;44276;49.534;6.378;2022-08-18T01:37:17;9.18;;;6.22;;
53775;SDS011;44276;49.534;6.378;2022-08-18T01:39:49;6.82;;;5.43;;
53775;SDS011;44276;49.534;6.378;2022-08-18T01:42:38;9.50;;;5.10;;
53775;SDS011;44276;49.534;6.378;2022-08-18T01:45:09;6.68;;;5.28;;
53775;SDS011;44276;49.534;6.378;2022-08-18T01:47:39;5.85;;;4.97;;
53775;SDS011;44276;49.534;6.378;2022-08-18T01:50:14;5.80;;;5.20;;
53775;SDS011;44276;49.534;6.378;2022-08-18T01:52:44;7.30;;;4.95;;
53775;SDS011;44276;49.534;6.378;2022-08-18T01:55:13;7.30;;;5.13;;
53775;SDS011;44276;49.534;6.378;2022-08-18T01:57:44;7.57;;;5.90;;
53775;SDS011;44276;49.534;6.378;2022-08-18T02:00:13;7.60;;;5.35;;
53775;SDS011;44276;49.534;6.378;2022-08-18T02:02:44;6.75;;;4.45;;
53775;SDS011;44276;49.534;6.378;2022-08-18T02:05:28;6.70;;;4.95;;
53775;SDS011;44276;49.534;6.378;2022-08-18T02:08:03;7.47;;;5.43;;
53775;SDS011;44276;49.534;6.378;2022-08-18T02:10:33;6.93;;;5.63;;
53775;SDS011;44276;49.534;6.378;2022-08-18T02:13:01;6.90;;;4.90;;
53775;SDS011;44276;49.534;6.378;2022-08-18T02:15:30;6.95;;;5.22;;
53775;SDS011;44276;49.534;6.378;2022-08-18T02:17:58;7.40;;;5.28;;
53775;SDS011;44276;49.534;6.378;2022-08-18T02:20:27;7.65;;;6.25;;
53775;SDS011;44276;49.534;6.378;2022-08-18T02:22:55;7.40;;;5.68;;
53775;SDS011;44276;49.534;6.378;2022-08-18T02:25:24;7.68;;;5.40;;
53775;SDS011;44276;49.534;6.378;2022-08-18T02:27:54;9.15;;;5.47;;
53775;SDS011;44276;49.534;6.378;2022-08-18T02:30:23;8.35;;;5.05;;
53775;SDS011;44276;49.534;6.378;2022-08-18T02:32:51;9.30;;;4.88;;
53775;SDS011;44276;49.534;6.378;2022-08-18T02:35:21;7.60;;;5.88;;
53775;SDS011;44276;49.534;6.378;2022-08-18T02:37:49;8.30;;;5.82;;
53775;SDS011;44276;49.534;6.378;2022-08-18T02:40:19;7.65;;;5.07;;
53775;SDS011;44276;49.534;6.378;2022-08-18T02:42:48;7.65;;;5.25;;
53775;SDS011;44276;49.534;6.378;2022-08-18T02:45:19;5.25;;;4.57;;
53775;SDS011;44276;49.534;6.378;2022-08-18T02:47:50;7.10;;;5.53;;
53775;SDS011;44276;49.534;6.378;2022-08-18T02:50:19;7.47;;;5.63;;
53775;SDS011;44276;49.534;6.378;2022-08-18T02:52:48;7.28;;;6.32;;
53775;SDS011;44276;49.534;6.378;2022-08-18T02:55:16;5.97;;;5.35;;
53775;SDS011;44276;49.534;6.378;2022-08-18T02:57:45;6.80;;;5.40;;
53775;SDS011;44276;49.534;6.378;2022-08-18T03:00:16;6.80;;;5.57;;
53775;SDS011;44276;49.534;6.378;2022-08-18T03:02:46;7.43;;;5.95;;
53775;SDS011;44276;49.534;6.378;2022-08-18T03:05:17;9.13;;;6.43;;
53775;SDS011;44276;49.534;6.378;2022-08-18T03:07:46;6.80;;;5.65;;
53775;SDS011;44276;49.534;6.378;2022-08-18T03:10:16;8.05;;;6.13;;
53775;SDS011;44276;49.534;6.378;2022-08-18T03:12:59;7.50;;;6.63;;
53775;SDS011;44276;49.534;6.378;2022-08-18T03:15:29;8.60;;;6.65;;
53775;SDS011;44276;49.534;6.378;2022-08-18T03:17:57;7.75;;;6.55;;
53775;SDS011;44276;49.534;6.378;2022-08-18T03:20:26;8.55;;;6.53;;
53775;SDS011;44276;49.534;6.378;2022-08-18T03:22:56;8.35;;;6.00;;
53775;SDS011;44276;49.534;6.378;2022-08-18T03:25:31;8.75;;;6.30;;
53775;SDS011;44276;49.534;6.378;2022-08-18T03:28:00;9.25;;;6.40;;
53775;SDS011;44276;49.534;6.378;2022-08-18T03:30:31;9.40;;;6.10;;
53775;SDS011;44276;49.534;6.378;2022-08-18T03:32:59;8.95;;;6.13;;
53775;SDS011;44276;49.534;6.378;2022-08-18T03:35:27;6.90;;;5.95;;
53775;SDS011;44276;49.534;6.378;2022-08-18T03:37:57;9.13;;;5.40;;
53775;SDS011;44276;49.534;6.378;2022-08-18T03:40:26;7.05;;;6.07;;
53775;SDS011;44276;49.534;6.378;2022-08-18T03:42:54;7.50;;;5.40;;
53775;SDS011;44276;49.534;6.378;2022-08-18T03:45:27;6.57;;;5.40;;
53775;SDS011;44276;49.534;6.378;2022-08-18T03:47:58;6.72;;;5.55;;
53775;SDS011;44276;49.534;6.378;2022-08-18T03:50:28;7.88;;;5.70;;
53775;SDS011;44276;49.534;6.378;2022-08-18T03:52:57;7.78;;;6.00;;
53775;SDS011;44276;49.534;6.378;2022-08-18T03:55:26;7.20;;;6.45;;
53775;SDS011;44276;49.534;6.378;2022-08-18T03:57:58;8.32;;;6.40;;
53775;SDS011;44276;49.534;6.378;2022-08-18T04:00:28;7.75;;;6.68;;
53775;SDS011;44276;49.534;6.378;2022-08-18T04:03:01;9.25;;;6.40;;
53775;SDS011;44276;49.534;6.378;2022-08-18T04:05:29;7.18;;;6.28;;
53775;SDS011;44276;49.534;6.378;2022-08-18T04:07:59;8.38;;;6.07;;
53775;SDS011;44276;49.534;6.378;2022-08-18T04:10:28;6.97;;;5.90;;
53775;SDS011;44276;49.534;6.378;2022-08-18T04:12:56;13.65;;;5.75;;
53775;SDS011;44276;49.534;6.378;2022-08-18T04:15:24;8.20;;;6.32;;
53775;SDS011;44276;49.534;6.378;2022-08-18T04:17:53;8.27;;;5.90;;
53775;SDS011;44276;49.534;6.378;2022-08-18T04:20:31;10.65;;;6.95;;
53775;SDS011;44276;49.534;6.378;2022-08-18T04:22:59;7.93;;;5.85;;
53775;SDS011;44276;49.534;6.378;2022-08-18T04:25:28;8.40;;;6.20;;
53775;SDS011;44276;49.534;6.378;2022-08-18T04:27:59;7.72;;;6.05;;
53775;SDS011;44276;49.534;6.378;2022-08-18T04:30:29;9.43;;;6.88;;
53775;SDS011;44276;49.534;6.378;2022-08-18T04:32:57;7.18;;;6.13;;
53775;SDS011;44276;49.534;6.378;2022-08-18T04:35:30;8.82;;;6.22;;
53775;SDS011;44276;49.534;6.378;2022-08-18T04:37:58;8.20;;;6.25;;
53775;SDS011;44276;49.534;6.378;2022-08-18T04:40:26;9.90;;;6.20;;
53775;SDS011;44276;49.534;6.378;2022-08-18T04:42:58;8.70;;;5.80;;
53775;SDS011;44276;49.534;6.378;2022-08-18T04:45:28;9.10;;;5.75;;
53775;SDS011;44276;49.534;6.378;2022-08-18T04:47:56;8.48;;;5.47;;
53775;SDS011;44276;49.534;6.378;2022-08-18T04:50:25;9.48;;;6.55;;
53775;SDS011;44276;49.534;6.378;2022-08-18T04:52:54;10.93;;;6.53;;
53775;SDS011;44276;49.534;6.378;2022-08-18T04:55:44;21.00;;;8.38;;
53775;SDS011;44276;49.534;6.378;2022-08-18T04:58:14;10.23;;;6.68;;
53775;SDS011;44276;49.534;6.378;2022-08-18T05:00:43;8.10;;;7.10;;
53775;SDS011;44276;49.534;6.378;2022-08-18T05:03:12;9.13;;;6.68;;
53775;SDS011;44276;49.534;6.378;2022-08-18T05:05:40;8.20;;;6.38;;
53775;SDS011;44276;49.534;6.378;2022-08-18T05:08:10;8.88;;;6.57;;
53775;SDS011;44276;49.534;6.378;2022-08-18T05:10:38;9.63;;;6.25;;
53775;SDS011;44276;49.534;6.378;2022-08-18T05:13:06;11.60;;;7.18;;
53775;SDS011;44276;49.534;6.378;2022-08-18T05:15:35;15.35;;;7.13;;
53775;SDS011;44276;49.534;6.378;2022-08-18T05:18:25;10.05;;;5.93;;
53775;SDS011;44276;49.534;6.378;2022-08-18T05:20:54;8.77;;;6.22;;
53775;SDS011;44276;49.534;6.378;2022-08-18T05:23:25;10.00;;;7.50;;
53775;SDS011;44276;49.534;6.378;2022-08-18T05:25:56;9.18;;;7.22;;
53775;SDS011;44276;49.534;6.378;2022-08-18T05:28:26;9.98;;;7.07;;
53775;SDS011;44276;49.534;6.378;2022-08-18T05:30:54;12.20;;;7.13;;
53775;SDS011;44276;49.534;6.378;2022-08-18T05:33:25;10.75;;;7.97;;
53775;SDS011;44276;49.534;6.378;2022-08-18T05:35:58;9.68;;;7.72;;
53775;SDS011;44276;49.534;6.378;2022-08-18T05:38:36;10.02;;;6.80;;
53775;SDS011;44276;49.534;6.378;2022-08-18T05:41:18;11.15;;;7.80;;
53775;SDS011;44276;49.534;6.378;2022-08-18T05:43:53;9.23;;;7.00;;
53775;SDS011;44276;49.534;6.378;2022-08-18T05:46:25;13.23;;;7.88;;
53775;SDS011;44276;49.534;6.378;2022-08-18T05:49:05;12.57;;;7.78;;
53775;SDS011;44276;49.534;6.378;2022-08-18T05:51:35;11.25;;;7.95;;
53775;SDS011;44276;49.534;6.378;2022-08-18T05:54:12;10.50;;;7.78;;
53775;SDS011;44276;49.534;6.378;2022-08-18T05:57:04;9.52;;;7.78;;
53775;SDS011;44276;49.534;6.378;2022-08-18T05:59:43;9.68;;;7.00;;
53775;SDS011;44276;49.534;6.378;2022-08-18T06:02:15;10.00;;;6.70;;
53775;SDS011;44276;49.534;6.378;2022-08-18T06:04:58;9.85;;;6.90;;
53775;SDS011;44276;49.534;6.378;2022-08-18T06:07:33;10.27;;;7.40;;
53775;SDS011;44276;49.534;6.378;2022-08-18T06:10:11;8.65;;;6.57;;
53775;SDS011;44276;49.534;6.378;2022-08-18T06:12:41;9.38;;;7.13;;
53775;SDS011;44276;49.534;6.378;2022-08-18T06:15:17;12.25;;;9.05;;
53775;SDS011;44276;49.534;6.378;2022-08-18T06:18:02;13.63;;;8.13;;
53775;SDS011;44276;49.534;6.378;2022-08-18T06:21:02;13.57;;;8.65;;
53775;SDS011;44276;49.534;6.378;2022-08-18T06:24:05;18.40;;;9.38;;
53775;SDS011;44276;49.534;6.378;2022-08-18T06:26:55;10.25;;;8.18;;
53775;SDS011;44276;49.534;6.378;2022-08-18T06:29:41;10.30;;;8.57;;
53775;SDS011;44276;49.534;6.378;2022-08-18T06:32:28;10.90;;;8.57;;
53775;SDS011;44276;49.534;6.378;2022-08-18T06:35:22;10.52;;;7.57;;
53775;SDS011;44276;49.534;6.378;2022-08-18T06:38:04;8.75;;;6.85;;
53775;SDS011;44276;49.534;6.378;2022-08-18T06:41:12;13.88;;;8.48;;
53775;SDS011;44276;49.534;6.378;2022-08-18T06:44:05;10.82;;;8.13;;
53775;SDS011;44276;49.534;6.378;2022-08-18T06:46:38;9.77;;;7.93;;
53775;SDS011;44276;49.534;6.378;2022-08-18T06:49:13;15.32;;;9.10;;
53775;SDS011;44276;49.534;6.378;2022-08-18T06:54:52;15.82;;;10.18;;
53775;SDS011;44276;49.534;6.378;2022-08-18T06:57:24;10.98;;;8.48;;
53775;SDS011;44276;49.534;6.378;2022-08-18T06:59:59;10.70;;;8.00;;
53775;SDS011;44276;49.534;6.378;2022-08-18T07:02:42;10.98;;;8.48;;
53775;SDS011;44276;49.534;6.378;2022-08-18T07:05:21;12.82;;;9.15;;
53775;SDS011;44276;49.534;6.378;2022-08-18T07:10:54;10.88;;;8.48;;
53775;SDS011;44276;49.534;6.378;2022-08-18T07:13:37;13.32;;;8.55;;
53775;SDS011;44276;49.534;6.378;2022-08-18T07:16:15;11.63;;;8.10;;
53775;SDS011;44276;49.534;6.378;2022-08-18T07:19:08;12.52;;;9.23;;
53775;SDS011;44276;49.534;6.378;2022-08-18T07:21:37;10.02;;;7.78;;
53775;SDS011;44276;49.534;6.378;2022-08-18T07:24:09;10.95;;;8.65;;
53775;SDS011;44276;49.534;6.378;2022-08-18T07:26:57;11.60;;;7.78;;
53775;SDS011;44276;49.534;6.378;2022-08-18T07:29:29;12.88;;;8.43;;
53775;SDS011;44276;49.534;6.378;2022-08-18T07:32:03;10.57;;;7.50;;
53775;SDS011;44276;49.534;6.378;2022-08-18T07:34:47;8.85;;;8.02;;
53775;SDS011;44276;49.534;6.378;2022-08-18T07:37:23;14.85;;;8.27;;
53775;SDS011;44276;49.534;6.378;2022-08-18T07:39:59;15.25;;;8.80;;
53775;SDS011;44276;49.534;6.378;2022-08-18T07:42:41;13.65;;;8.52;;
53775;SDS011;44276;49.534;6.378;2022-08-18T07:45:30;11.32;;;8.65;;
53775;SDS011;44276;49.534;6.378;2022-08-18T07:48:10;12.43;;;8.25;;
53775;SDS011;44276;49.534;6.378;2022-08-18T07:51:04;12.68;;;8.98;;
53775;SDS011;44276;49.534;6.378;2022-08-18T07:53:49;10.75;;;8.38;;
53775;SDS011;44276;49.534;6.378;2022-08-18T07:56:29;10.90;;;8.23;;
53775;SDS011;44276;49.534;6.378;2022-08-18T07:59:11;7.65;;;6.75;;
53775;SDS011;44276;49.534;6.378;2022-08-18T08:02:08;10.90;;;8.45;;
53775;SDS011;44276;49.534;6.378;2022-08-18T08:04:58;11.27;;;8.60;;
53775;SDS011;44276;49.534;6.378;2022-08-18T08:07:37;10.00;;;8.98;;
53775;SDS011;44276;49.534;6.378;2022-08-18T08:10:18;10.90;;;9.05;;
53775;SDS011;44276;49.534;6.378;2022-08-18T08:13:02;15.48;;;11.30;;
53775;SDS011;44276;49.534;6.378;2022-08-18T08:16:08;13.25;;;9.43;;
53775;SDS011;44276;49.534;6.378;2022-08-18T08:18:45;13.40;;;9.98;;
53775;SDS011;44276;49.534;6.378;2022-08-18T08:21:39;14.43;;;10.57;;
53775;SDS011;44276;49.534;6.378;2022-08-18T08:24:19;14.27;;;11.15;;
53775;SDS011;44276;49.534;6.378;2022-08-18T08:27:02;14.68;;;10.60;;
53775;SDS011;44276;49.534;6.378;2022-08-18T08:29:43;12.40;;;9.68;;
53775;SDS011;44276;49.534;6.378;2022-08-18T08:32:23;14.90;;;10.88;;
53775;SDS011;44276;49.534;6.378;2022-08-18T08:35:03;12.38;;;10.15;;
53775;SDS011;44276;49.534;6.378;2022-08-18T08:37:59;14.35;;;10.32;;
53775;SDS011;44276;49.534;6.378;2022-08-18T08:40:56;13.82;;;9.02;;
53775;SDS011;44276;49.534;6.378;2022-08-18T08:43:30;11.98;;;9.60;;
53775;SDS011;44276;49.534;6.378;2022-08-18T08:46:08;10.35;;;8.60;;
53775;SDS011;44276;49.534;6.378;2022-08-18T08:48:43;17.88;;;9.10;;
53775;SDS011;44276;49.534;6.378;2022-08-18T08:51:25;13.52;;;8.25;;
53775;SDS011;44276;49.534;6.378;2022-08-18T08:54:04;14.88;;;9.00;;
53775;SDS011;44276;49.534;6.378;2022-08-18T08:56:42;11.10;;;9.00;;
53775;SDS011;44276;49.534;6.378;2022-08-18T08:59:15;12.95;;;8.05;;
53775;SDS011;44276;49.534;6.378;2022-08-18T09:01:50;12.55;;;8.45;;
53775;SDS011;44276;49.534;6.378;2022-08-18T09:04:33;8.32;;;7.15;;
53775;SDS011;44276;49.534;6.378;2022-08-18T09:07:38;8.48;;;7.57;;
53775;SDS011;44276;49.534;6.378;2022-08-18T09:13:57;13.93;;;11.73;;
53775;SDS011;44276;49.534;6.378;2022-08-18T09:17:15;16.20;;;11.52;;
53775;SDS011;44276;49.534;6.378;2022-08-18T09:20:10;18.25;;;11.45;;
53775;SDS011;44276;49.534;6.378;2022-08-18T09:23:15;11.02;;;9.25;;
53775;SDS011;44276;49.534;6.378;2022-08-18T09:25:49;14.07;;;10.52;;
53775;SDS011;44276;49.534;6.378;2022-08-18T09:28:22;14.02;;;10.85;;
53775;SDS011;44276;49.534;6.378;2022-08-18T09:31:22;12.98;;;10.23;;
53775;SDS011;44276;49.534;6.378;2022-08-18T09:34:03;16.00;;;11.15;;
53775;SDS011;44276;49.534;6.378;2022-08-18T09:39:52;12.13;;;9.48;;
53775;SDS011;44276;49.534;6.378;2022-08-18T09:43:13;14.40;;;11.30;;
53775;SDS011;44276;49.534;6.378;2022-08-18T09:45:56;15.00;;;11.68;;
53775;SDS011;44276;49.534;6.378;2022-08-18T09:48:32;14.68;;;10.77;;
53775;SDS011;44276;49.534;6.378;2022-08-18T09:57:05;10.43;;;8.95;;
53775;SDS011;44276;49.534;6.378;2022-08-18T09:59:56;11.63;;;10.00;;
53775;SDS011;44276;49.534;6.378;2022-08-18T10:06:17;10.45;;;8.90;;
53775;SDS011;44276;49.534;6.378;2022-08-18T10:09:04;13.07;;;9.65;;
53775;SDS011;44276;49.534;6.378;2022-08-18T10:24:34;9.85;;;7.78;;
53775;SDS011;44276;49.534;6.378;2022-08-18T10:36:50;10.38;;;7.68;;
53775;SDS011;44276;49.534;6.378;2022-08-18T10:39:43;9.05;;;6.85;;
53775;SDS011;44276;49.534;6.378;2022-08-18T10:42:17;8.30;;;7.20;;
53775;SDS011;44276;49.534;6.378;2022-08-18T10:44:59;8.48;;;6.70;;
53775;SDS011;44276;49.534;6.378;2022-08-18T10:47:57;11.10;;;7.05;;
53775;SDS011;44276;49.534;6.378;2022-08-18T10:50:49;7.43;;;6.47;;
53775;SDS011;44276;49.534;6.378;2022-08-18T10:53:27;9.95;;;6.32;;
53775;SDS011;44276;49.534;6.378;2022-08-18T10:56:27;7.07;;;6.35;;
53775;SDS011;44276;49.534;6.378;2022-08-18T10:59:05;8.88;;;6.20;;
53775;SDS011;44276;49.534;6.378;2022-08-18T11:02:15;13.75;;;6.90;;
53775;SDS011;44276;49.534;6.378;2022-08-18T11:05:09;8.27;;;6.68;;
53775;SDS011;44276;49.534;6.378;2022-08-18T11:07:46;7.75;;;6.70;;
53775;SDS011;44276;49.534;6.378;2022-08-18T11:10:33;8.30;;;6.97;;
53775;SDS011;44276;49.534;6.378;2022-08-18T11:13:25;7.88;;;6.88;;
53775;SDS011;44276;49.534;6.378;2022-08-18T11:16:05;8.77;;;7.43;;
53775;SDS011;44276;49.534;6.378;2022-08-18T11:18:44;11.60;;;6.15;;
53775;SDS011;44276;49.534;6.378;2022-08-18T11:21:22;10.10;;;6.38;;
53775;SDS011;44276;49.534;6.378;2022-08-18T11:24:03;7.35;;;6.55;;
53775;SDS011;44276;49.534;6.378;2022-08-18T11:26:36;9.60;;;7.43;;
53775;SDS011;44276;49.534;6.378;2022-08-18T11:29:16;12.00;;;8.13;;
53775;SDS011;44276;49.534;6.378;2022-08-18T11:31:47;7.25;;;6.53;;
53775;SDS011;44276;49.534;6.378;2022-08-18T11:34:19;14.63;;;8.45;;
53775;SDS011;44276;49.534;6.378;2022-08-18T11:36:58;7.15;;;6.45;;
53775;SDS011;44276;49.534;6.378;2022-08-18T11:42:15;8.75;;;7.72;;
53775;SDS011;44276;49.534;6.378;2022-08-18T11:44:52;7.70;;;6.43;;
53775;SDS011;44276;49.534;6.378;2022-08-18T11:47:22;7.97;;;6.68;;
53775;SDS011;44276;49.534;6.378;2022-08-18T11:49:56;10.18;;;7.10;;
53775;SDS011;44276;49.534;6.378;2022-08-18T11:52:45;7.40;;;5.43;;
53775;SDS011;44276;49.534;6.378;2022-08-18T11:55:21;8.23;;;6.50;;
53775;SDS011;44276;49.534;6.378;2022-08-18T11:57:58;9.23;;;7.25;;
53775;SDS011;44276;49.534;6.378;2022-08-18T12:00:39;13.55;;;7.40;;
53775;SDS011;44276;49.534;6.378;2022-08-18T12:03:29;7.15;;;6.45;;
53775;SDS011;44276;49.534;6.378;2022-08-18T12:06:10;11.25;;;6.55;;
53775;SDS011;44276;49.534;6.378;2022-08-18T12:08:53;9.10;;;5.85;;
53775;SDS011;44276;49.534;6.378;2022-08-18T12:11:30;9.73;;;6.63;;
53775;SDS011;44276;49.534;6.378;2022-08-18T12:14:06;9.38;;;5.68;;
53775;SDS011;44276;49.534;6.378;2022-08-18T12:16:59;9.05;;;5.30;;
53775;SDS011;44276;49.534;6.378;2022-08-18T12:19:27;7.60;;;5.88;;
53775;SDS011;44276;49.534;6.378;2022-08-18T12:21:59;5.60;;;4.80;;
53775;SDS011;44276;49.534;6.378;2022-08-18T12:24:38;5.97;;;5.38;;
53775;SDS011;44276;49.534;6.378;2022-08-18T12:27:08;7.07;;;6.03;;
53775;SDS011;44276;49.534;6.378;2022-08-18T12:29:47;7.20;;;5.47;;
53775;SDS011;44276;49.534;6.378;2022-08-18T12:32:16;6.40;;;4.15;;
53775;SDS011;44276;49.534;6.378;2022-08-18T12:35:06;5.88;;;4.95;;
53775;SDS011;44276;49.534;6.378;2022-08-18T12:37:40;7.35;;;5.20;;
53775;SDS011;44276;49.534;6.378;2022-08-18T12:40:30;7.00;;;5.25;;
53775;SDS011;44276;49.534;6.378;2022-08-18T12:43:00;6.95;;;5.20;;
53775;SDS011;44276;49.534;6.378;2022-08-18T12:45:31;9.52;;;6.20;;
53775;SDS011;44276;49.534;6.378;2022-08-18T12:48:03;5.65;;;4.95;;
53775;SDS011;44276;49.534;6.378;2022-08-18T12:50:33;7.07;;;5.07;;
53775;SDS011;44276;49.534;6.378;2022-08-18T12:53:23;6.97;;;4.80;;
53775;SDS011;44276;49.534;6.378;2022-08-18T12:56:04;6.20;;;5.05;;
53775;SDS011;44276;49.534;6.378;2022-08-18T12:58:37;6.15;;;4.97;;
53775;SDS011;44276;49.534;6.378;2022-08-18T13:01:06;6.35;;;4.47;;
53775;SDS011;44276;49.534;6.378;2022-08-18T13:03:35;7.35;;;5.13;;
53775;SDS011;44276;49.534;6.378;2022-08-18T13:06:07;6.32;;;4.88;;
53775;SDS011;44276;49.534;6.378;2022-08-18T13:08:36;4.93;;;4.00;;
53775;SDS011;44276;49.534;6.378;2022-08-18T13:11:15;5.65;;;4.35;;
53775;SDS011;44276;49.534;6.378;2022-08-18T13:13:51;7.55;;;5.80;;
53775;SDS011;44276;49.534;6.378;2022-08-18T13:16:22;6.20;;;4.80;;
53775;SDS011;44276;49.534;6.378;2022-08-18T13:19:12;7.22;;;4.68;;
53775;SDS011;44276;49.534;6.378;2022-08-18T13:21:41;5.15;;;4.40;;
53775;SDS011;44276;49.534;6.378;2022-08-18T13:24:10;5.68;;;4.82;;
53775;SDS011;44276;49.534;6.378;2022-08-18T13:26:43;6.97;;;4.80;;
53775;SDS011;44276;49.534;6.378;2022-08-18T13:29:15;5.07;;;4.35;;
53775;SDS011;44276;49.534;6.378;2022-08-18T13:31:44;4.90;;;4.43;;
53775;SDS011;44276;49.534;6.378;2022-08-18T13:34:21;7.50;;;4.70;;
53775;SDS011;44276;49.534;6.378;2022-08-18T13:36:50;5.10;;;4.57;;
53775;SDS011;44276;49.534;6.378;2022-08-18T13:39:19;5.05;;;4.55;;
53775;SDS011;44276;49.534;6.378;2022-08-18T13:41:51;10.60;;;5.50;;
53775;SDS011;44276;49.534;6.378;2022-08-18T13:44:27;5.68;;;4.90;;
53775;SDS011;44276;49.534;6.378;2022-08-18T13:46:55;6.30;;;4.43;;
53775;SDS011;44276;49.534;6.378;2022-08-18T13:49:24;5.15;;;4.65;;
53775;SDS011;44276;49.534;6.378;2022-08-18T13:51:55;7.07;;;5.13;;
53775;SDS011;44276;49.534;6.378;2022-08-18T13:54:29;7.00;;;4.57;;
53775;SDS011;44276;49.534;6.378;2022-08-18T13:57:01;6.72;;;5.07;;
53775;SDS011;44276;49.534;6.378;2022-08-18T13:59:33;5.35;;;4.28;;
53775;SDS011;44276;49.534;6.378;2022-08-18T14:02:11;6.07;;;4.82;;
53775;SDS011;44276;49.534;6.378;2022-08-18T14:04:40;6.68;;;4.18;;
53775;SDS011;44276;49.534;6.378;2022-08-18T14:07:09;4.43;;;4.03;;
53775;SDS011;44276;49.534;6.378;2022-08-18T14:09:44;4.43;;;4.03;;
53775;SDS011;44276;49.534;6.378;2022-08-18T14:12:21;5.25;;;4.75;;
53775;SDS011;44276;49.534;6.378;2022-08-18T14:14:59;6.13;;;4.20;;
53775;SDS011;44276;49.534;6.378;2022-08-18T14:17:27;4.28;;;3.88;;
53775;SDS011;44276;49.534;6.378;2022-08-18T14:19:55;6.57;;;4.50;;
53775;SDS011;44276;49.534;6.378;2022-08-18T14:22:53;5.28;;;4.78;;
53775;SDS011;44276;49.534;6.378;2022-08-18T14:25:47;5.68;;;4.00;;
53775;SDS011;44276;49.534;6.378;2022-08-18T14:28:33;4.68;;;4.07;;
53775;SDS011;44276;49.534;6.378;2022-08-18T14:31:07;5.05;;;4.55;;
53775;SDS011;44276;49.534;6.378;2022-08-18T14:33:37;5.10;;;3.90;;
53775;SDS011;44276;49.534;6.378;2022-08-18T14:36:17;4.22;;;3.83;;
53775;SDS011;44276;49.534;6.378;2022-08-18T14:38:55;5.55;;;3.72;;
53775;SDS011;44276;49.534;6.378;2022-08-18T14:41:24;6.07;;;3.72;;
53775;SDS011;44276;49.534;6.378;2022-08-18T14:43:54;4.90;;;3.42;;
53775;SDS011;44276;49.534;6.378;2022-08-18T14:46:39;8.35;;;3.95;;
53775;SDS011;44276;49.534;6.378;2022-08-18T14:49:19;4.07;;;3.45;;
53775;SDS011;44276;49.534;6.378;2022-08-18T14:51:54;4.85;;;4.22;;
53775;SDS011;44276;49.534;6.378;2022-08-18T14:54:24;6.13;;;4.13;;
53775;SDS011;44276;49.534;6.378;2022-08-18T14:56:55;4.80;;;4.28;;
53775;SDS011;44276;49.534;6.378;2022-08-18T14:59:23;4.38;;;3.60;;
53775;SDS011;44276;49.534;6.378;2022-08-18T15:01:54;6.40;;;4.68;;
53775;SDS011;44276;49.534;6.378;2022-08-18T15:04:23;6.32;;;4.35;;
53775;SDS011;44276;49.534;6.378;2022-08-18T15:06:52;4.70;;;3.60;;
53775;SDS011;44276;49.534;6.378;2022-08-18T15:09:23;4.82;;;3.60;;
53775;SDS011;44276;49.534;6.378;2022-08-18T15:11:52;5.95;;;4.00;;
53775;SDS011;44276;49.534;6.378;2022-08-18T15:14:23;4.80;;;4.30;;
53775;SDS011;44276;49.534;6.378;2022-08-18T15:17:00;6.45;;;4.68;;
53775;SDS011;44276;49.534;6.378;2022-08-18T15:19:39;4.90;;;3.80;;
53775;SDS011;44276;49.534;6.378;2022-08-18T15:22:26;5.70;;;4.00;;
53775;SDS011;44276;49.534;6.378;2022-08-18T15:25:13;6.55;;;4.45;;
53775;SDS011;44276;49.534;6.378;2022-08-18T15:27:59;5.25;;;4.10;;
53775;SDS011;44276;49.534;6.378;2022-08-18T15:30:28;4.32;;;3.92;;
53775;SDS011;44276;49.534;6.378;2022-08-18T15:32:58;5.22;;;3.90;;
53775;SDS011;44276;49.534;6.378;2022-08-18T15:35:28;5.15;;;4.50;;
53775;SDS011;44276;49.534;6.378;2022-08-18T15:37:57;4.70;;;4.30;;
53775;SDS011;44276;49.534;6.378;2022-08-18T15:40:30;4.57;;;4.18;;
53775;SDS011;44276;49.534;6.378;2022-08-18T15:43:06;5.65;;;3.83;;
53775;SDS011;44276;49.534;6.378;2022-08-18T15:45:37;4.78;;;4.25;;
53775;SDS011;44276;49.534;6.378;2022-08-18T15:48:25;4.78;;;3.85;;
53775;SDS011;44276;49.534;6.378;2022-08-18T15:50:55;4.45;;;4.05;;
53775;SDS011;44276;49.534;6.378;2022-08-18T15:53:37;4.75;;;4.35;;
53775;SDS011;44276;49.534;6.378;2022-08-18T15:56:11;4.85;;;3.88;;
53775;SDS011;44276;49.534;6.378;2022-08-18T15:58:46;4.57;;;4.18;;
53775;SDS011;44276;49.534;6.378;2022-08-18T16:01:15;4.78;;;4.25;;
53775;SDS011;44276;49.534;6.378;2022-08-18T16:03:59;3.95;;;3.65;;
53775;SDS011;44276;49.534;6.378;2022-08-18T16:06:29;4.75;;;4.15;;
53775;SDS011;44276;49.534;6.378;2022-08-18T16:09:00;4.97;;;4.47;;
53775;SDS011;44276;49.534;6.378;2022-08-18T16:11:30;5.28;;;4.78;;
53775;SDS011;44276;49.534;6.378;2022-08-18T16:13:58;4.65;;;4.20;;
53775;SDS011;44276;49.534;6.378;2022-08-18T16:16:27;3.85;;;3.45;;
53775;SDS011;44276;49.534;6.378;2022-08-18T16:19:03;10.90;;;4.95;;
53775;SDS011;44276;49.534;6.378;2022-08-18T16:21:33;5.18;;;4.45;;
53775;SDS011;44276;49.534;6.378;2022-08-18T16:24:05;5.03;;;4.28;;
53775;SDS011;44276;49.534;6.378;2022-08-18T16:26:35;4.68;;;4.28;;